STP weather

St Paul Downtown Holman Field
St Paul, Minnesota, United States

Public forecast

Using degrees Fahrenheit for public forecast. Weather courtesy of forecast.io.

Current aviation weather report (METAR) for St Paul Downtown Holman Field

Retrieved 2020/02/17 14:53 UTC (11 minutes ago):

KSTP 171453Z 12007KT 10SM CLR M03/M08 A2992 RMK AO2 SLP141 T10281078 56005

Aviation forecast (TAF) for St Paul Downtown Holman Field

Forecast is more than 12 hours old.

Retrieved 2018/02/05 00:21 UTC (2 years ago):

TAF KSTP 052320Z 0600/0624 27006KT P6SM FEW020 FM060100 30010KT P6SM FEW100 FM061600 25004KT P6SM SCT250 FM061900 21006KT P6SM BKN250 AMD NOT SKED